Time;durP1;ratioP1;P1;durP2;ratioP2;P2;SDS_P1;SDS_P2;PMS_P1;PMS_P2;Temp;Humidity;BMP_temperature;BMP_pressure;BME280_temperature;BME280_humidity;BME280_pressure;Samples;Min_cycle;Max_cycle;Signal;HPM_P1;HPM_P2
2021/09/23 00:01:38;;;;;;;18.38;7.22;;;;;;;;;;5017081;28;20087;-85
2021/09/23 00:04:17;;;;;;;21.77;8.43;;;;;;;;;;5016443;28;20022;-84
2021/09/23 00:06:42;;;;;;;17.75;7.43;;;;;;;;;;5016509;28;20017;-85
2021/09/23 00:09:08;;;;;;;24.60;8.35;;;;;;;;;;5033967;28;20071;-84
2021/09/23 00:11:33;;;;;;;16.83;8.15;;;;;;;;;;5016756;28;20060;-84
2021/09/23 00:13:58;;;;;;;18.35;7.53;;;;;;;;;;5015888;28;20027;-85
2021/09/23 00:16:24;;;;;;;21.33;7.55;;;;;;;;;;5016295;28;20064;-84
2021/09/23 00:18:50;;;;;;;19.42;6.70;;;;;;;;;;5015188;28;20095;-85
2021/09/23 00:21:16;;;;;;;20.85;7.55;;;;;;;;;;5033634;28;20021;-85
2021/09/23 00:23:43;;;;;;;18.48;7.50;;;;;;;;;;5033703;28;20431;-85
2021/09/23 00:26:08;;;;;;;21.13;6.78;;;;;;;;;;5015631;28;20049;-85
2021/09/23 00:28:34;;;;;;;16.27;6.37;;;;;;;;;;5033938;28;20071;-84
2021/09/23 00:30:59;;;;;;;24.15;6.88;;;;;;;;;;5015258;28;20264;-85
2021/09/23 00:33:24;;;;;;;19.48;7.00;;;;;;;;;;5015626;28;20028;-85
2021/09/23 00:35:53;;;;;;;20.23;8.63;;;;;;;;;;5033954;28;20060;-85
2021/09/23 00:38:18;;;;;;;22.70;7.93;;;;;;;;;;5033440;28;20453;-84
2021/09/23 00:40:46;;;;;;;21.63;7.28;;;;;;;;;;5034369;28;20024;-85
2021/09/23 00:43:11;;;;;;;20.95;7.35;;;;;;;;;;5016166;28;20022;-85
2021/09/23 00:45:37;;;;;;;23.40;7.30;;;;;;;;;;5015830;28;20242;-84
2021/09/23 00:48:02;;;;;;;18.92;6.60;;;;;;;;;;5015209;28;20032;-85
2021/09/23 00:50:28;;;;;;;22.25;7.88;;;;;;;;;;5015234;28;20033;-85
2021/09/23 00:52:53;;;;;;;24.95;8.60;;;;;;;;;;5033501;28;20022;-84
2021/09/23 00:55:19;;;;;;;28.33;9.32;;;;;;;;;;5015738;28;20039;-84
2021/09/23 00:57:44;;;;;;;21.05;7.80;;;;;;;;;;5033058;28;20096;-85
2021/09/23 01:00:11;;;;;;;21.65;7.93;;;;;;;;;;5015363;28;20497;-85
2021/09/23 01:02:36;;;;;;;26.63;8.68;;;;;;;;;;5033418;28;20193;-84
2021/09/23 01:05:02;;;;;;;25.00;8.70;;;;;;;;;;5015061;28;20026;-85
2021/09/23 01:07:27;;;;;;;26.80;9.45;;;;;;;;;;5014777;28;20263;-85
2021/09/23 01:09:53;;;;;;;23.87;8.70;;;;;;;;;;5014874;28;20021;-84
2021/09/23 01:12:19;;;;;;;28.02;10.70;;;;;;;;;;5033203;28;20263;-84
2021/09/23 01:14:45;;;;;;;24.17;9.18;;;;;;;;;;5015252;28;20449;-85
2021/09/23 01:17:11;;;;;;;27.75;9.30;;;;;;;;;;5014359;28;20060;-85
2021/09/23 01:19:37;;;;;;;24.35;9.48;;;;;;;;;;5014384;28;20493;-84
2021/09/23 01:22:03;;;;;;;23.27;9.30;;;;;;;;;;5032731;28;20539;-84
2021/09/23 01:24:28;;;;;;;24.35;10.63;;;;;;;;;;5032877;28;20193;-85
2021/09/23 01:26:55;;;;;;;25.38;9.00;;;;;;;;;;5014912;28;20075;-84
2021/09/23 01:29:22;;;;;;;24.58;9.82;;;;;;;;;;5015044;28;20027;-84
2021/09/23 01:31:47;;;;;;;22.45;9.45;;;;;;;;;;5014765;28;20025;-85
2021/09/23 01:34:12;;;;;;;26.90;10.13;;;;;;;;;;5015797;28;20025;-85
2021/09/23 01:36:37;;;;;;;25.00;10.35;;;;;;;;;;5014696;28;20315;-84
2021/09/23 01:39:03;;;;;;;18.80;10.13;;;;;;;;;;5014930;28;20029;-85
2021/09/23 01:41:28;;;;;;;17.88;9.15;;;;;;;;;;5032687;28;20275;-84
2021/09/23 01:43:53;;;;;;;23.90;9.52;;;;;;;;;;5033311;28;20025;-84
2021/09/23 01:46:19;;;;;;;22.90;9.30;;;;;;;;;;5014782;28;20060;-85
2021/09/23 01:48:44;;;;;;;25.52;11.20;;;;;;;;;;5014336;28;20649;-84
2021/09/23 01:51:09;;;;;;;25.67;9.50;;;;;;;;;;5015462;28;20018;-85
2021/09/23 01:53:34;;;;;;;24.05;9.52;;;;;;;;;;5013881;28;20052;-85
2021/09/23 01:56:00;;;;;;;25.52;9.82;;;;;;;;;;5032382;28;20076;-85
2021/09/23 01:58:25;;;;;;;30.97;10.00;;;;;;;;;;5014662;28;20021;-84
2021/09/23 02:00:50;;;;;;;23.55;9.68;;;;;;;;;;5031502;28;20263;-85
2021/09/23 02:03:16;;;;;;;29.73;8.85;;;;;;;;;;5014352;28;20552;-85
2021/09/23 02:05:41;;;;;;;26.85;10.48;;;;;;;;;;5032302;28;20034;-85
2021/09/23 02:08:06;;;;;;;25.80;10.05;;;;;;;;;;5014288;28;20028;-85
2021/09/23 02:10:32;;;;;;;26.98;9.95;;;;;;;;;;4997555;28;20053;-85
2021/09/23 02:12:57;;;;;;;26.67;10.45;;;;;;;;;;5014179;28;20033;-85
2021/09/23 02:15:22;;;;;;;32.13;10.73;;;;;;;;;;5031470;28;20076;-85
2021/09/23 02:17:48;;;;;;;28.15;10.15;;;;;;;;;;5014246;28;20037;-85
2021/09/23 02:20:13;;;;;;;28.17;11.00;;;;;;;;;;5014073;28;20033;-85
2021/09/23 02:22:38;;;;;;;30.75;11.18;;;;;;;;;;5013469;28;20264;-85
2021/09/23 02:25:04;;;;;;;29.60;10.85;;;;;;;;;;5013835;28;20060;-85
2021/09/23 02:27:29;;;;;;;33.28;10.52;;;;;;;;;;5014111;28;20029;-85
2021/09/23 02:29:54;;;;;;;26.95;9.93;;;;;;;;;;5014610;28;20056;-84
2021/09/23 02:32:20;;;;;;;23.65;11.65;;;;;;;;;;5013432;28;20492;-85
2021/09/23 02:34:45;;;;;;;33.27;11.50;;;;;;;;;;5031445;28;20060;-84
2021/09/23 02:37:10;;;;;;;33.47;12.10;;;;;;;;;;5013684;28;20272;-85
2021/09/23 02:39:36;;;;;;;36.90;11.10;;;;;;;;;;5013322;28;20547;-85
2021/09/23 02:42:01;;;;;;;30.95;11.65;;;;;;;;;;5013378;28;20494;-85
2021/09/23 02:44:27;;;;;;;23.67;11.15;;;;;;;;;;5013034;28;20643;-84
2021/09/23 02:46:52;;;;;;;26.80;10.30;;;;;;;;;;5031161;28;20055;-85
2021/09/23 02:49:17;;;;;;;29.00;11.25;;;;;;;;;;5014190;28;20037;-85
2021/09/23 02:51:42;;;;;;;29.83;11.20;;;;;;;;;;5013662;28;20040;-85
2021/09/23 02:54:07;;;;;;;27.63;11.27;;;;;;;;;;5015771;28;20261;-84
2021/09/23 02:56:33;;;;;;;30.75;12.88;;;;;;;;;;5034914;28;20888;-84
2021/09/23 02:58:58;;;;;;;24.25;11.15;;;;;;;;;;5034789;28;20023;-84
2021/09/23 03:01:24;;;;;;;32.83;12.90;;;;;;;;;;5016873;28;20037;-85
2021/09/23 03:03:49;;;;;;;26.05;10.55;;;;;;;;;;5035069;28;20026;-85
2021/09/23 03:06:14;;;;;;;32.55;12.32;;;;;;;;;;5034658;28;20017;-85
2021/09/23 03:08:39;;;;;;;31.70;10.48;;;;;;;;;;5016925;28;20048;-85
2021/09/23 03:11:05;;;;;;;29.05;11.02;;;;;;;;;;5035044;28;20636;-85
2021/09/23 03:13:30;;;;;;;24.40;11.80;;;;;;;;;;5017009;28;20401;-85
2021/09/23 03:15:55;;;;;;;30.92;11.43;;;;;;;;;;5017443;28;20031;-84
2021/09/23 03:18:21;;;;;;;30.27;11.47;;;;;;;;;;5018428;28;20109;-84
2021/09/23 03:20:47;;;;;;;26.70;11.65;;;;;;;;;;5017938;28;20284;-84
2021/09/23 03:23:13;;;;;;;26.00;11.05;;;;;;;;;;5019749;28;20032;-84
2021/09/23 03:25:38;;;;;;;26.70;10.27;;;;;;;;;;5018675;28;20120;-84
2021/09/23 03:28:04;;;;;;;29.52;10.70;;;;;;;;;;5017586;28;20420;-85
2021/09/23 03:30:29;;;;;;;25.75;11.43;;;;;;;;;;5016771;28;20377;-85
2021/09/23 03:32:55;;;;;;;29.05;10.95;;;;;;;;;;5017562;28;20075;-84
2021/09/23 03:35:21;;;;;;;25.50;10.68;;;;;;;;;;5018392;28;20021;-85
2021/09/23 03:37:47;;;;;;;28.45;10.82;;;;;;;;;;5038319;28;20390;-85
2021/09/23 03:40:12;;;;;;;21.42;9.88;;;;;;;;;;5037961;28;20021;-85
2021/09/23 03:42:37;;;;;;;26.77;10.77;;;;;;;;;;5019053;28;20037;-85
2021/09/23 03:45:04;;;;;;;22.77;10.10;;;;;;;;;;5018513;28;20039;-84
2021/09/23 03:47:29;;;;;;;27.50;10.32;;;;;;;;;;5017558;28;20256;-85
2021/09/23 03:49:54;;;;;;;35.87;12.10;;;;;;;;;;5035063;28;20028;-85
2021/09/23 03:52:19;;;;;;;31.33;10.87;;;;;;;;;;5036585;28;20319;-85
2021/09/23 03:54:45;;;;;;;29.27;11.07;;;;;;;;;;5020265;28;20100;-85
2021/09/23 03:57:10;;;;;;;27.77;11.15;;;;;;;;;;5019157;28;20256;-85
2021/09/23 03:59:35;;;;;;;36.67;10.90;;;;;;;;;;5035497;28;20485;-85
2021/09/23 04:02:00;;;;;;;30.77;11.35;;;;;;;;;;5019591;28;20048;-85
2021/09/23 04:04:26;;;;;;;27.17;12.25;;;;;;;;;;5034170;28;20025;-84
2021/09/23 04:06:51;;;;;;;36.55;12.20;;;;;;;;;;5015807;28;20045;-84
2021/09/23 04:09:17;;;;;;;30.02;11.70;;;;;;;;;;5036596;28;20022;-85
2021/09/23 04:11:42;;;;;;;31.95;12.10;;;;;;;;;;5017330;28;20025;-85
2021/09/23 04:14:08;;;;;;;35.47;13.55;;;;;;;;;;5034623;28;20030;-85
2021/09/23 04:16:33;;;;;;;36.13;13.07;;;;;;;;;;5034829;28;20029;-85
2021/09/23 04:18:59;;;;;;;30.55;12.70;;;;;;;;;;5033365;28;20076;-85
2021/09/23 04:21:25;;;;;;;39.42;13.88;;;;;;;;;;5016560;28;20068;-84
2021/09/23 04:23:50;;;;;;;36.28;13.52;;;;;;;;;;5034707;28;20030;-85
2021/09/23 04:26:16;;;;;;;37.13;14.55;;;;;;;;;;5034165;28;20026;-84
2021/09/23 04:28:41;;;;;;;40.67;16.15;;;;;;;;;;5018982;28;20442;-85
2021/09/23 04:31:07;;;;;;;42.33;15.43;;;;;;;;;;5017598;28;20029;-85
2021/09/23 04:33:32;;;;;;;34.53;14.57;;;;;;;;;;5020814;28;20082;-85
2021/09/23 04:35:57;;;;;;;33.20;13.45;;;;;;;;;;5037976;28;20029;-85
2021/09/23 04:38:23;;;;;;;38.03;15.00;;;;;;;;;;5016862;28;20025;-85
2021/09/23 04:40:49;;;;;;;29.33;12.27;;;;;;;;;;5017143;28;20021;-85
2021/09/23 04:43:15;;;;;;;30.80;12.82;;;;;;;;;;5033611;28;20260;-85
2021/09/23 04:45:40;;;;;;;35.47;14.20;;;;;;;;;;5034287;28;20025;-85
2021/09/23 04:48:05;;;;;;;36.00;13.83;;;;;;;;;;5016394;28;20366;-85
2021/09/23 04:50:30;;;;;;;34.35;12.65;;;;;;;;;;5015893;28;20256;-85
2021/09/23 04:52:56;;;;;;;35.10;14.20;;;;;;;;;;5017166;28;20022;-85
2021/09/23 04:55:21;;;;;;;31.42;13.30;;;;;;;;;;5018609;28;20040;-85
2021/09/23 04:57:47;;;;;;;32.63;14.57;;;;;;;;;;5033737;28;20539;-85
2021/09/23 05:00:12;;;;;;;28.58;12.60;;;;;;;;;;5032011;28;20029;-85
2021/09/23 05:02:37;;;;;;;33.72;13.27;;;;;;;;;;5032351;28;20022;-85
2021/09/23 05:05:03;;;;;;;41.63;13.53;;;;;;;;;;5014860;28;20079;-85
2021/09/23 05:07:28;;;;;;;32.08;13.68;;;;;;;;;;5033066;28;20315;-85
2021/09/23 05:09:53;;;;;;;27.48;12.73;;;;;;;;;;5033981;28;20079;-85
2021/09/23 05:12:19;;;;;;;30.05;12.30;;;;;;;;;;5033279;28;20093;-85
2021/09/23 05:14:44;;;;;;;34.83;13.25;;;;;;;;;;5015152;28;20029;-85
2021/09/23 05:17:09;;;;;;;29.92;13.55;;;;;;;;;;5032199;28;20031;-85
2021/09/23 05:19:34;;;;;;;28.93;12.93;;;;;;;;;;5016202;28;20096;-84
2021/09/23 05:22:00;;;;;;;40.77;13.50;;;;;;;;;;5015981;28;20295;-85
2021/09/23 05:24:25;;;;;;;27.23;11.98;;;;;;;;;;5015898;28;20324;-85
2021/09/23 05:26:50;;;;;;;30.43;12.57;;;;;;;;;;5015235;28;20037;-85
2021/09/23 05:29:15;;;;;;;30.77;11.43;;;;;;;;;;5015657;28;20017;-85
2021/09/23 05:31:40;;;;;;;37.42;13.10;;;;;;;;;;5014397;28;20382;-85
2021/09/23 05:34:06;;;;;;;27.63;10.63;;;;;;;;;;5017028;28;20093;-84
2021/09/23 05:36:31;;;;;;;28.55;10.93;;;;;;;;;;5017635;28;20051;-85
2021/09/23 05:38:59;;;;;;;34.05;11.57;;;;;;;;;;5034428;28;20521;-85
2021/09/23 05:41:25;;;;;;;35.30;12.77;;;;;;;;;;5033343;28;20029;-85
2021/09/23 05:43:50;;;;;;;36.38;11.95;;;;;;;;;;5033099;28;20021;-84
2021/09/23 05:46:16;;;;;;;32.65;12.68;;;;;;;;;;5015543;28;20116;-84
2021/09/23 05:48:41;;;;;;;42.30;12.60;;;;;;;;;;5014873;28;20025;-84
2021/09/23 05:51:06;;;;;;;32.28;12.45;;;;;;;;;;5032998;28;20049;-84
2021/09/23 05:53:32;;;;;;;35.92;12.20;;;;;;;;;;5016790;28;20025;-85
2021/09/23 05:55:57;;;;;;;31.95;11.57;;;;;;;;;;5032658;28;20075;-84
2021/09/23 05:58:22;;;;;;;29.50;12.30;;;;;;;;;;5015817;28;20116;-85
2021/09/23 06:00:47;;;;;;;28.70;10.05;;;;;;;;;;5013885;28;20397;-84
2021/09/23 06:03:12;;;;;;;29.27;11.30;;;;;;;;;;5036060;28;20532;-84
2021/09/23 06:05:38;;;;;;;33.43;11.87;;;;;;;;;;5028556;28;20067;-84
2021/09/23 06:08:03;;;;;;;32.27;12.23;;;;;;;;;;5022828;28;20256;-84
2021/09/23 06:10:28;;;;;;;27.05;10.65;;;;;;;;;;5035739;28;20291;-85
2021/09/23 06:12:54;;;;;;;27.15;10.20;;;;;;;;;;5051973;28;20028;-85
2021/09/23 06:15:19;;;;;;;23.83;9.37;;;;;;;;;;5051558;28;20024;-85
2021/09/23 06:17:45;;;;;;;28.47;9.67;;;;;;;;;;5033469;28;20438;-84
2021/09/23 06:20:11;;;;;;;27.42;10.18;;;;;;;;;;5048984;28;20264;-84
2021/09/23 06:22:36;;;;;;;28.42;9.60;;;;;;;;;;5028040;28;20795;-84
2021/09/23 06:25:02;;;;;;;23.00;7.63;;;;;;;;;;5033992;28;20028;-84
2021/09/23 06:27:27;;;;;;;19.83;7.30;;;;;;;;;;5033489;28;20703;-84
2021/09/23 06:29:52;;;;;;;29.83;7.40;;;;;;;;;;5050629;28;20033;-84
2021/09/23 06:32:17;;;;;;;18.03;5.67;;;;;;;;;;5033256;28;20035;-84
2021/09/23 06:34:42;;;;;;;17.42;6.20;;;;;;;;;;5053493;28;20266;-84
2021/09/23 06:37:08;;;;;;;16.53;5.13;;;;;;;;;;5052141;28;20094;-84
2021/09/23 06:39:33;;;;;;;18.77;5.38;;;;;;;;;;5033527;28;20295;-84
2021/09/23 06:41:58;;;;;;;25.73;4.78;;;;;;;;;;5033950;28;20066;-84
2021/09/23 06:44:24;;;;;;;16.83;5.18;;;;;;;;;;5045707;28;20021;-84
2021/09/23 06:46:49;;;;;;;15.80;4.60;;;;;;;;;;5053728;28;20086;-84
2021/09/23 06:49:14;;;;;;;18.85;5.15;;;;;;;;;;5034355;28;20020;-84
2021/09/23 06:51:40;;;;;;;19.88;4.90;;;;;;;;;;5033802;28;20052;-84
2021/09/23 06:54:05;;;;;;;23.57;5.10;;;;;;;;;;5051476;28;20054;-84
2021/09/23 06:56:30;;;;;;;16.02;4.22;;;;;;;;;;5033269;28;20271;-85
2021/09/23 06:58:56;;;;;;;18.55;5.03;;;;;;;;;;5052248;28;20034;-85
2021/09/23 07:01:21;;;;;;;17.30;4.80;;;;;;;;;;5034785;28;20051;-84
2021/09/23 07:03:46;;;;;;;19.00;4.27;;;;;;;;;;5053157;28;20381;-85
2021/09/23 07:06:11;;;;;;;23.13;4.23;;;;;;;;;;5052064;28;20262;-85
2021/09/23 07:08:36;;;;;;;18.27;5.00;;;;;;;;;;5032864;28;20505;-84
2021/09/23 07:11:02;;;;;;;23.73;5.82;;;;;;;;;;5051813;28;20262;-84
2021/09/23 07:13:27;;;;;;;19.23;4.97;;;;;;;;;;5051404;28;20380;-85
2021/09/23 07:15:53;;;;;;;24.33;4.70;;;;;;;;;;5033171;28;20782;-85
2021/09/23 07:18:18;;;;;;;16.13;4.30;;;;;;;;;;5032971;28;20057;-84
2021/09/23 07:20:43;;;;;;;18.52;4.78;;;;;;;;;;5050880;28;20615;-85
2021/09/23 07:23:08;;;;;;;16.65;4.82;;;;;;;;;;5035333;28;20046;-85
2021/09/23 07:25:33;;;;;;;18.63;4.90;;;;;;;;;;5033404;28;20443;-84
2021/09/23 07:28:00;;;;;;;15.38;3.83;;;;;;;;;;5033689;28;20409;-85
2021/09/23 07:30:25;;;;;;;21.20;4.43;;;;;;;;;;5032627;28;20085;-84
2021/09/23 07:32:51;;;;;;;16.70;4.40;;;;;;;;;;5052039;28;20077;-85
2021/09/23 07:35:16;;;;;;;20.83;4.05;;;;;;;;;;5051929;28;20037;-85
2021/09/23 07:37:41;;;;;;;19.85;3.60;;;;;;;;;;5034066;28;20540;-85
2021/09/23 07:40:08;;;;;;;17.98;4.57;;;;;;;;;;5034667;28;20105;-84
2021/09/23 07:42:34;;;;;;;22.20;4.90;;;;;;;;;;5054253;28;20037;-84
2021/09/23 07:44:59;;;;;;;18.35;4.07;;;;;;;;;;5037840;28;20021;-84
2021/09/23 07:47:24;;;;;;;14.98;4.20;;;;;;;;;;5056626;28;20021;-85
2021/09/23 07:49:50;;;;;;;17.70;3.93;;;;;;;;;;5055122;28;20028;-85
2021/09/23 07:52:15;;;;;;;30.03;4.70;;;;;;;;;;5036086;28;20263;-84
2021/09/23 07:54:40;;;;;;;18.55;3.97;;;;;;;;;;5036507;28;20021;-85
2021/09/23 07:57:05;;;;;;;16.23;4.30;;;;;;;;;;5031599;28;20500;-85
2021/09/23 07:59:30;;;;;;;32.15;4.88;;;;;;;;;;5023020;28;20025;-84
2021/09/23 08:01:56;;;;;;;21.83;4.73;;;;;;;;;;5054972;28;20031;-84
2021/09/23 08:04:21;;;;;;;17.90;4.87;;;;;;;;;;5054772;28;20306;-84
2021/09/23 08:06:46;;;;;;;23.57;4.30;;;;;;;;;;5035285;28;20481;-84
2021/09/23 08:09:11;;;;;;;20.10;4.23;;;;;;;;;;5037016;28;20251;-85
2021/09/23 08:11:36;;;;;;;18.23;4.00;;;;;;;;;;5037052;28;20262;-85
2021/09/23 08:14:02;;;;;;;15.40;4.33;;;;;;;;;;5036668;28;20259;-84
2021/09/23 08:16:27;;;;;;;20.83;5.82;;;;;;;;;;5054179;28;20310;-84
2021/09/23 08:18:52;;;;;;;24.02;5.20;;;;;;;;;;5054089;28;20079;-85
2021/09/23 08:21:17;;;;;;;18.80;4.53;;;;;;;;;;5054226;28;20072;-84
2021/09/23 08:23:43;;;;;;;24.30;5.30;;;;;;;;;;5038482;28;20825;-84
2021/09/23 08:26:08;;;;;;;24.38;4.85;;;;;;;;;;5052710;28;20289;-85
2021/09/23 08:28:35;;;;;;;23.10;4.28;;;;;;;;;;5035036;28;20043;-84
2021/09/23 08:31:00;;;;;;;24.13;5.75;;;;;;;;;;5053196;28;20483;-84
2021/09/23 08:33:26;;;;;;;21.38;3.95;;;;;;;;;;5036213;28;20106;-85
2021/09/23 08:35:51;;;;;;;20.55;4.47;;;;;;;;;;5056106;28;20118;-85
2021/09/23 08:38:20;;;;;;;21.63;4.60;;;;;;;;;;5035987;28;20033;-84
2021/09/23 08:40:49;;;;;;;23.38;4.10;;;;;;;;;;5053908;28;20466;-84
2021/09/23 08:43:15;;;;;;;18.08;4.03;;;;;;;;;;5054482;28;20114;-85
2021/09/23 08:45:40;;;;;;;23.20;5.55;;;;;;;;;;5036431;28;20064;-84
2021/09/23 08:48:06;;;;;;;22.97;4.53;;;;;;;;;;5038595;28;20528;-84
2021/09/23 08:50:31;;;;;;;21.17;3.95;;;;;;;;;;5055502;28;20255;-85
2021/09/23 08:52:57;;;;;;;21.77;4.88;;;;;;;;;;5034529;28;20033;-84
2021/09/23 08:55:29;;;;;;;29.75;5.97;;;;;;;;;;5035230;28;20028;-85
2021/09/23 08:57:55;;;;;;;21.88;4.93;;;;;;;;;;5052434;28;20083;-84
2021/09/23 09:00:24;;;;;;;23.08;5.35;;;;;;;;;;5034884;28;20037;-84
2021/09/23 09:03:21;;;;;;;27.88;5.85;;;;;;;;;;5054588;28;20025;-84
2021/09/23 09:05:50;;;;;;;31.50;5.05;;;;;;;;;;4969249;28;20461;-84
2021/09/23 09:08:18;;;;;;;26.02;5.45;;;;;;;;;;5035827;28;20435;-85
2021/09/23 09:10:43;;;;;;;19.08;4.22;;;;;;;;;;5052351;28;20021;-85
2021/09/23 09:13:08;;;;;;;23.02;5.30;;;;;;;;;;5053579;28;20021;-85
2021/09/23 09:15:38;;;;;;;32.47;5.90;;;;;;;;;;5053608;28;20755;-85
2021/09/23 09:18:20;;;;;;;23.15;5.40;;;;;;;;;;5052944;28;20148;-85
2021/09/23 09:20:50;;;;;;;23.92;5.55;;;;;;;;;;5053547;28;20048;-85
2021/09/23 09:23:15;;;;;;;32.85;6.40;;;;;;;;;;5034536;28;20539;-85
2021/09/23 09:25:40;;;;;;;34.70;6.53;;;;;;;;;;5034701;28;20028;-85
2021/09/23 09:28:06;;;;;;;18.80;4.37;;;;;;;;;;5053147;28;20025;-85
2021/09/23 09:30:36;;;;;;;23.88;4.70;;;;;;;;;;5036835;28;20310;-85
2021/09/23 09:33:02;;;;;;;27.60;5.88;;;;;;;;;;5035957;28;20017;-85
2021/09/23 09:35:31;;;;;;;19.85;4.82;;;;;;;;;;5052440;28;20376;-85
2021/09/23 09:37:59;;;;;;;24.98;5.25;;;;;;;;;;5034349;28;20427;-85
2021/09/23 09:40:26;;;;;;;23.98;5.70;;;;;;;;;;5052571;28;20420;-85
2021/09/23 09:42:52;;;;;;;23.15;5.50;;;;;;;;;;5055926;28;20036;-84
2021/09/23 09:45:28;;;;;;;31.75;6.68;;;;;;;;;;5034387;28;20029;-85
2021/09/23 09:47:54;;;;;;;27.15;5.25;;;;;;;;;;5035252;28;20490;-85
2021/09/23 09:50:24;;;;;;;38.65;6.63;;;;;;;;;;5058725;28;20025;-84
2021/09/23 09:52:50;;;;;;;31.48;6.95;;;;;;;;;;5033641;28;20096;-85
2021/09/23 09:55:16;;;;;;;26.75;5.50;;;;;;;;;;5034089;28;20480;-84
2021/09/23 09:57:48;;;;;;;23.40;6.45;;;;;;;;;;5053134;28;20035;-85
2021/09/23 10:00:14;;;;;;;21.85;5.32;;;;;;;;;;5033457;28;20023;-85
2021/09/23 10:02:42;;;;;;;20.98;5.93;;;;;;;;;;5033697;28;20021;-85
2021/09/23 10:05:07;;;;;;;17.63;5.15;;;;;;;;;;5033053;28;20542;-86
2021/09/23 10:07:34;;;;;;;16.35;4.63;;;;;;;;;;5050955;28;20024;-85
2021/09/23 10:09:59;;;;;;;16.55;4.95;;;;;;;;;;5036776;28;20196;-84
2021/09/23 10:12:25;;;;;;;21.20;5.22;;;;;;;;;;5050560;28;20170;-85
2021/09/23 10:14:50;;;;;;;15.15;4.65;;;;;;;;;;5051438;28;20031;-85
2021/09/23 10:17:15;;;;;;;21.40;5.68;;;;;;;;;;5033321;28;20457;-85
2021/09/23 10:19:43;;;;;;;20.50;5.30;;;;;;;;;;5052422;28;20075;-85
2021/09/23 10:22:09;;;;;;;18.05;5.03;;;;;;;;;;5051963;28;20056;-85
2021/09/23 10:24:36;;;;;;;17.73;5.40;;;;;;;;;;5053489;28;20016;-85
2021/09/23 10:27:02;;;;;;;17.38;5.45;;;;;;;;;;5034586;28;20422;-85
2021/09/23 10:29:28;;;;;;;20.17;5.13;;;;;;;;;;5055144;28;20017;-85
2021/09/23 10:31:57;;;;;;;17.25;4.57;;;;;;;;;;5036931;28;20060;-85
2021/09/23 10:34:23;;;;;;;22.13;5.30;;;;;;;;;;5030929;28;20029;-85
2021/09/23 10:36:49;;;;;;;20.05;4.68;;;;;;;;;;5030123;28;21093;-85
2021/09/23 10:39:16;;;;;;;27.52;5.05;;;;;;;;;;5033978;28;20025;-85
2021/09/23 10:41:42;;;;;;;19.33;4.78;;;;;;;;;;5051527;28;20028;-86
2021/09/23 10:44:08;;;;;;;20.08;5.40;;;;;;;;;;5034713;28;20477;-84
2021/09/23 10:46:34;;;;;;;25.20;5.68;;;;;;;;;;5044555;28;20021;-85
2021/09/23 10:49:01;;;;;;;24.30;6.35;;;;;;;;;;5028816;28;20025;-85
2021/09/23 10:51:26;;;;;;;19.25;4.93;;;;;;;;;;5032324;28;20025;-85
2021/09/23 10:53:55;;;;;;;22.42;5.32;;;;;;;;;;5032573;28;20017;-84
2021/09/23 10:56:21;;;;;;;20.00;5.13;;;;;;;;;;5050401;28;20023;-86
2021/09/23 10:58:47;;;;;;;26.98;5.75;;;;;;;;;;5045462;28;20021;-85
2021/09/23 11:01:20;;;;;;;23.60;5.55;;;;;;;;;;5052675;28;20025;-86
2021/09/23 11:03:48;;;;;;;30.38;6.50;;;;;;;;;;5051235;28;20838;-85
2021/09/23 11:06:14;;;;;;;37.13;7.85;;;;;;;;;;5032058;28;20033;-85
2021/09/23 11:08:40;;;;;;;25.85;5.82;;;;;;;;;;5032034;28;20115;-85
2021/09/23 11:11:06;;;;;;;19.33;5.28;;;;;;;;;;5032178;28;20024;-85
2021/09/23 11:13:35;;;;;;;26.00;6.32;;;;;;;;;;5032942;28;20385;-84
2021/09/23 11:16:00;;;;;;;28.52;5.47;;;;;;;;;;5054627;28;20655;-85
2021/09/23 11:18:25;;;;;;;30.85;7.30;;;;;;;;;;5037233;28;20060;-85
2021/09/23 11:20:52;;;;;;;41.30;6.93;;;;;;;;;;5035844;28;20051;-84
2021/09/23 11:23:19;;;;;;;58.45;7.30;;;;;;;;;;5036408;28;20025;-85
2021/09/23 11:25:51;;;;;;;47.30;9.38;;;;;;;;;;5036305;28;20166;-84
2021/09/23 11:28:18;;;;;;;39.83;10.85;;;;;;;;;;5054761;28;20017;-84
2021/09/23 11:30:43;;;;;;;31.95;7.43;;;;;;;;;;5036637;28;20071;-84
2021/09/23 11:33:09;;;;;;;33.97;7.90;;;;;;;;;;5037324;28;20481;-85
2021/09/23 11:35:36;;;;;;;32.65;8.20;;;;;;;;;;5053818;28;20024;-85
2021/09/23 11:38:02;;;;;;;59.80;10.02;;;;;;;;;;5035753;28;20048;-84
2021/09/23 11:40:29;;;;;;;60.33;8.90;;;;;;;;;;5035645;28;20464;-85
2021/09/23 11:42:55;;;;;;;48.58;7.95;;;;;;;;;;5056331;28;20024;-84
2021/09/23 11:45:22;;;;;;;37.72;8.30;;;;;;;;;;5039465;28;20640;-85
2021/09/23 11:47:55;;;;;;;35.20;8.02;;;;;;;;;;5038883;28;20492;-85
2021/09/23 11:50:23;;;;;;;36.35;8.43;;;;;;;;;;5052570;28;20021;-85
2021/09/23 11:52:52;;;;;;;34.97;7.68;;;;;;;;;;5052804;28;20411;-85
2021/09/23 11:55:17;;;;;;;40.53;8.52;;;;;;;;;;5036035;28;20060;-85
2021/09/23 11:57:42;;;;;;;41.90;9.27;;;;;;;;;;5054643;28;20044;-85
2021/09/23 12:00:08;;;;;;;49.95;9.68;;;;;;;;;;5035987;28;20802;-85
2021/09/23 12:02:33;;;;;;;40.63;9.73;;;;;;;;;;5036523;28;20029;-84
2021/09/23 12:04:59;;;;;;;44.88;7.97;;;;;;;;;;5053427;28;20021;-84
2021/09/23 12:07:26;;;;;;;35.80;9.02;;;;;;;;;;5035803;28;20016;-85
2021/09/23 12:10:02;;;;;;;44.85;9.82;;;;;;;;;;5054591;28;20021;-85
2021/09/23 12:12:28;;;;;;;40.92;8.65;;;;;;;;;;5054475;28;20025;-85
2021/09/23 12:14:53;;;;;;;30.13;7.32;;;;;;;;;;5036042;28;20025;-85
2021/09/23 12:17:19;;;;;;;30.70;6.32;;;;;;;;;;5054947;28;20123;-84
2021/09/23 12:19:54;;;;;;;23.20;4.85;;;;;;;;;;5052029;28;20515;-84
2021/09/23 12:22:30;;;;;;;24.92;5.47;;;;;;;;;;5035255;28;20032;-85
2021/09/23 12:24:55;;;;;;;19.65;3.83;;;;;;;;;;5054424;28;20141;-84
2021/09/23 12:27:21;;;;;;;13.73;2.83;;;;;;;;;;5053697;28;20482;-84
2021/09/23 12:29:51;;;;;;;12.75;2.70;;;;;;;;;;5056054;28;20259;-84
2021/09/23 12:32:17;;;;;;;15.00;2.65;;;;;;;;;;5037559;28;20040;-85
2021/09/23 12:34:47;;;;;;;10.88;2.20;;;;;;;;;;5037316;28;20540;-85
2021/09/23 12:37:13;;;;;;;12.75;3.25;;;;;;;;;;5053421;28;20032;-84
2021/09/23 12:39:39;;;;;;;12.52;3.10;;;;;;;;;;5037464;28;20024;-85
2021/09/23 12:42:09;;;;;;;23.45;4.05;;;;;;;;;;5036758;28;20021;-85
2021/09/23 12:44:36;;;;;;;14.77;3.97;;;;;;;;;;5054208;28;20021;-85
2021/09/23 12:47:02;;;;;;;14.48;3.63;;;;;;;;;;5038124;28;20047;-85
2021/09/23 12:49:27;;;;;;;18.00;3.72;;;;;;;;;;5039220;28;20063;-85
2021/09/23 12:51:52;;;;;;;21.70;3.53;;;;;;;;;;5035285;28;20711;-84
2021/09/23 12:54:25;;;;;;;13.53;2.57;;;;;;;;;;5037250;28;20371;-84
2021/09/23 12:57:02;;;;;;;16.40;3.20;;;;;;;;;;5052631;28;20925;-85
2021/09/23 12:59:29;;;;;;;26.67;3.88;;;;;;;;;;5039159;28;20017;-85
2021/09/23 13:02:06;;;;;;;28.67;4.43;;;;;;;;;;5036640;28;20044;-85
2021/09/23 13:04:31;;;;;;;25.13;3.83;;;;;;;;;;5035846;28;20729;-85
2021/09/23 13:06:57;;;;;;;21.23;3.80;;;;;;;;;;5035137;28;20027;-85
2021/09/23 13:09:22;;;;;;;26.77;4.17;;;;;;;;;;5055308;28;20029;-85
2021/09/23 13:11:47;;;;;;;23.67;5.35;;;;;;;;;;5055518;28;20794;-85
2021/09/23 13:14:19;;;;;;;25.27;5.07;;;;;;;;;;5055145;28;20514;-85
2021/09/23 13:16:44;;;;;;;27.88;5.60;;;;;;;;;;5058002;28;20611;-85
2021/09/23 13:19:09;;;;;;;27.85;5.22;;;;;;;;;;5035634;28;20049;-85
2021/09/23 13:21:36;;;;;;;30.17;5.03;;;;;;;;;;5053742;28;20025;-85
2021/09/23 13:24:02;;;;;;;23.30;5.20;;;;;;;;;;5035600;28;20803;-85
2021/09/23 13:26:27;;;;;;;32.57;6.37;;;;;;;;;;5036171;28;20120;-85
2021/09/23 13:28:52;;;;;;;29.00;5.43;;;;;;;;;;5055154;28;20302;-85
2021/09/23 13:31:18;;;;;;;25.83;6.07;;;;;;;;;;5035871;28;20287;-85
2021/09/23 13:33:43;;;;;;;31.30;6.05;;;;;;;;;;5055332;28;20260;-84
2021/09/23 13:36:09;;;;;;;32.03;6.15;;;;;;;;;;5041042;28;20025;-85
2021/09/23 13:38:34;;;;;;;31.95;6.90;;;;;;;;;;5053236;28;20047;-85
2021/09/23 13:41:01;;;;;;;38.10;7.30;;;;;;;;;;5036750;28;20028;-85
2021/09/23 13:43:26;;;;;;;26.58;5.85;;;;;;;;;;5054826;28;20040;-85
2021/09/23 13:45:51;;;;;;;25.53;4.67;;;;;;;;;;5036816;28;20617;-85
2021/09/23 13:48:17;;;;;;;30.88;4.75;;;;;;;;;;5054181;28;20279;-85
2021/09/23 13:50:43;;;;;;;20.17;5.18;;;;;;;;;;5035977;28;20033;-85
2021/09/23 13:53:08;;;;;;;24.50;4.78;;;;;;;;;;5054675;28;20040;-84
2021/09/23 13:55:34;;;;;;;30.38;5.28;;;;;;;;;;5054916;28;20533;-84
2021/09/23 13:57:59;;;;;;;26.20;5.53;;;;;;;;;;5053575;28;20441;-85
2021/09/23 14:00:24;;;;;;;20.20;4.80;;;;;;;;;;5035549;28;20029;-85
2021/09/23 14:02:50;;;;;;;19.13;4.32;;;;;;;;;;5036392;28;20032;-85
2021/09/23 14:05:15;;;;;;;25.55;5.47;;;;;;;;;;5054603;28;20025;-85
2021/09/23 14:07:41;;;;;;;26.47;4.73;;;;;;;;;;5035433;28;20710;-84
2021/09/23 14:10:07;;;;;;;28.80;5.22;;;;;;;;;;5052443;28;20251;-85
2021/09/23 14:12:33;;;;;;;27.95;6.03;;;;;;;;;;5034620;28;20017;-84
2021/09/23 14:14:58;;;;;;;20.23;5.25;;;;;;;;;;5034548;28;20434;-85
2021/09/23 14:17:24;;;;;;;19.97;5.27;;;;;;;;;;5053268;28;20025;-85
2021/09/23 14:19:49;;;;;;;23.50;4.97;;;;;;;;;;5053463;28;20675;-84